KLIT/LIT METAR and TAF weather

Enter ICAO airport designator
Station Type Date Time Source
KLIT METAR 2022/05/24 12:44 UTC NOAA

KLIT 241244Z 07008KT 2 1/2SM -DZ BR OVC003 18/16 A2997 RMK AO2 RAE08DZB44 P0000 T01780161


Station Type Date Time Source
KLIT Decoded METAR 2022/05/24 12:44 UTC NOAA

LITTLE ROCK ADAMS FIELD, AR, United States (KLIT) 34-44N 92-14W 79M
May 24, 2022 - 08:44 AM EDT / 2022.05.24 1244 UTC
Wind: from the ENE (070 degrees) at 9 MPH (8 KT):0
Visibility: 2 1/2 mile(s):0
Sky conditions: overcast
Weather: light drizzle; mist
Precipitation last hour: A trace
Temperature: 64.0 F (17.8 C)
Dew Point: 61.0 F (16.1 C)
Relative Humidity: 89%
Pressure (altimeter): 29.97 in. Hg (1014 hPa)
ob: KLIT 241244Z 07008KT 2 1/2SM -DZ BR OVC003 18/16 A2997 RMK AO2 RAE08DZB44 P0000 T01780161
cycle: 12

Station Type Date Time Source
KLIT TAF 2022/05/24 12:22 UTC NOAA

TAF KLIT 241120Z 2412/2512 08006KT 4SM -RADZ BKN008 OVC015
TEMPO 2412/2416 1SM -TSRA BR BKN004 OVC008CB
FM241800 12008KT P6SM VCTS BKN012 OVC025CB
TEMPO 2418/2422 4SM -TSRA BR BKN008 OVC015CB
FM250100 16008G16KT 5SM -TSRA BR BKN008 OVC015CB PROB30 2501/2506 2SM TSRA BR OVC008CB
FM250600 16008KT 5SM -DZ BR VCTS BKN008 OVC012CB

Example: see airport list